sensor_id;sensor_type;location;lat;lon;timestamp;temperature;humidity
25440;DHT22;13365;52.208;5.488;2023-01-30T00:02:11;11.50;99.90
25440;DHT22;13365;52.208;5.488;2023-01-30T00:04:37;11.40;99.90
25440;DHT22;13365;52.208;5.488;2023-01-30T00:07:02;11.30;99.90
25440;DHT22;13365;52.208;5.488;2023-01-30T00:09:28;11.20;99.90
25440;DHT22;13365;52.208;5.488;2023-01-30T00:11:53;11.30;99.90
25440;DHT22;13365;52.208;5.488;2023-01-30T00:14:19;11.20;99.90
25440;DHT22;13365;52.208;5.488;2023-01-30T00:16:44;10.80;99.90
25440;DHT22;13365;52.208;5.488;2023-01-30T00:19:10;10.80;99.90
25440;DHT22;13365;52.208;5.488;2023-01-30T00:21:35;10.50;99.90
25440;DHT22;13365;52.208;5.488;2023-01-30T00:24:01;10.40;99.90
25440;DHT22;13365;52.208;5.488;2023-01-30T00:26:26;10.70;99.90
25440;DHT22;13365;52.208;5.488;2023-01-30T00:28:52;10.60;99.90
25440;DHT22;13365;52.208;5.488;2023-01-30T00:31:17;10.40;99.90
25440;DHT22;13365;52.208;5.488;2023-01-30T00:33:43;10.30;99.90
25440;DHT22;13365;52.208;5.488;2023-01-30T00:36:09;10.40;99.90
25440;DHT22;13365;52.208;5.488;2023-01-30T00:38:35;10.60;99.90
25440;DHT22;13365;52.208;5.488;2023-01-30T00:41:01;10.50;99.90
25440;DHT22;13365;52.208;5.488;2023-01-30T00:43:27;10.60;99.90
25440;DHT22;13365;52.208;5.488;2023-01-30T00:46:15;10.70;99.90
25440;DHT22;13365;52.208;5.488;2023-01-30T00:48:59;10.80;99.90
25440;DHT22;13365;52.208;5.488;2023-01-30T00:51:25;10.80;99.90
25440;DHT22;13365;52.208;5.488;2023-01-30T00:53:50;10.70;99.90
25440;DHT22;13365;52.208;5.488;2023-01-30T00:56:16;10.60;99.90
25440;DHT22;13365;52.208;5.488;2023-01-30T00:58:41;10.70;99.90
25440;DHT22;13365;52.208;5.488;2023-01-30T01:01:07;10.80;99.90
25440;DHT22;13365;52.208;5.488;2023-01-30T01:03:32;11.00;99.90
25440;DHT22;13365;52.208;5.488;2023-01-30T01:05:58;10.90;99.90
25440;DHT22;13365;52.208;5.488;2023-01-30T01:08:24;10.70;99.90
25440;DHT22;13365;52.208;5.488;2023-01-30T01:10:49;10.70;99.90
25440;DHT22;13365;52.208;5.488;2023-01-30T01:13:15;11.00;99.90
25440;DHT22;13365;52.208;5.488;2023-01-30T01:15:40;10.90;99.90
25440;DHT22;13365;52.208;5.488;2023-01-30T01:18:06;11.10;99.90
25440;DHT22;13365;52.208;5.488;2023-01-30T01:20:31;11.30;99.90
25440;DHT22;13365;52.208;5.488;2023-01-30T01:22:57;11.10;99.90
25440;DHT22;13365;52.208;5.488;2023-01-30T01:25:23;11.20;99.90
25440;DHT22;13365;52.208;5.488;2023-01-30T01:27:49;11.30;99.90
25440;DHT22;13365;52.208;5.488;2023-01-30T01:30:15;11.40;99.90
25440;DHT22;13365;52.208;5.488;2023-01-30T01:32:41;11.30;99.90
25440;DHT22;13365;52.208;5.488;2023-01-30T01:35:07;11.40;99.90
25440;DHT22;13365;52.208;5.488;2023-01-30T01:37:32;11.40;99.90
25440;DHT22;13365;52.208;5.488;2023-01-30T01:39:58;11.50;99.90
25440;DHT22;13365;52.208;5.488;2023-01-30T01:42:42;11.60;99.90
25440;DHT22;13365;52.208;5.488;2023-01-30T01:45:21;11.70;99.90
25440;DHT22;13365;52.208;5.488;2023-01-30T01:47:56;11.60;99.90
25440;DHT22;13365;52.208;5.488;2023-01-30T01:50:37;11.20;99.90
25440;DHT22;13365;52.208;5.488;2023-01-30T01:53:04;11.10;99.90
25440;DHT22;13365;52.208;5.488;2023-01-30T01:55:30;11.00;99.90
25440;DHT22;13365;52.208;5.488;2023-01-30T01:58:01;11.00;99.90
25440;DHT22;13365;52.208;5.488;2023-01-30T02:00:30;11.10;99.90
25440;DHT22;13365;52.208;5.488;2023-01-30T02:02:59;11.00;99.90
25440;DHT22;13365;52.208;5.488;2023-01-30T02:05:29;11.00;99.90
25440;DHT22;13365;52.208;5.488;2023-01-30T02:08:11;11.00;99.90
25440;DHT22;13365;52.208;5.488;2023-01-30T02:10:55;11.10;99.90
25440;DHT22;13365;52.208;5.488;2023-01-30T02:13:22;10.90;99.90
25440;DHT22;13365;52.208;5.488;2023-01-30T02:15:48;10.90;99.90
25440;DHT22;13365;52.208;5.488;2023-01-30T02:18:14;10.90;99.90
25440;DHT22;13365;52.208;5.488;2023-01-30T02:23:48;10.80;99.90
25440;DHT22;13365;52.208;5.488;2023-01-30T02:37:19;10.10;99.90
25440;DHT22;13365;52.208;5.488;2023-01-30T02:42:43;10.00;99.90
25440;DHT22;13365;52.208;5.488;2023-01-30T02:45:22;10.00;99.90
25440;DHT22;13365;52.208;5.488;2023-01-30T02:47:59;10.10;99.90
25440;DHT22;13365;52.208;5.488;2023-01-30T02:53:05;9.70;99.90
25440;DHT22;13365;52.208;5.488;2023-01-30T02:55:31;9.70;99.90
25440;DHT22;13365;52.208;5.488;2023-01-30T02:57:56;9.70;99.90
25440;DHT22;13365;52.208;5.488;2023-01-30T03:00:54;9.70;99.90
25440;DHT22;13365;52.208;5.488;2023-01-30T03:06:53;9.70;99.90
25440;DHT22;13365;52.208;5.488;2023-01-30T03:12:28;9.70;99.90
25440;DHT22;13365;52.208;5.488;2023-01-30T03:15:04;9.50;99.90
25440;DHT22;13365;52.208;5.488;2023-01-30T03:17:34;9.60;99.90
25440;DHT22;13365;52.208;5.488;2023-01-30T03:20:00;9.60;99.90
25440;DHT22;13365;52.208;5.488;2023-01-30T03:22:26;9.70;99.90
25440;DHT22;13365;52.208;5.488;2023-01-30T03:24:53;9.80;99.90
25440;DHT22;13365;52.208;5.488;2023-01-30T03:27:19;9.80;99.90
25440;DHT22;13365;52.208;5.488;2023-01-30T03:29:45;9.80;99.90
25440;DHT22;13365;52.208;5.488;2023-01-30T03:32:11;10.10;99.90
25440;DHT22;13365;52.208;5.488;2023-01-30T03:34:37;9.90;99.90
25440;DHT22;13365;52.208;5.488;2023-01-30T03:37:03;9.80;99.90
25440;DHT22;13365;52.208;5.488;2023-01-30T03:39:29;9.80;99.90
25440;DHT22;13365;52.208;5.488;2023-01-30T03:41:54;9.80;99.90
25440;DHT22;13365;52.208;5.488;2023-01-30T03:44:20;9.80;99.90
25440;DHT22;13365;52.208;5.488;2023-01-30T03:46:46;9.80;99.90
25440;DHT22;13365;52.208;5.488;2023-01-30T03:49:11;9.90;99.90
25440;DHT22;13365;52.208;5.488;2023-01-30T03:51:37;9.80;99.90
25440;DHT22;13365;52.208;5.488;2023-01-30T03:54:02;10.10;99.90
25440;DHT22;13365;52.208;5.488;2023-01-30T03:56:29;10.00;99.90
25440;DHT22;13365;52.208;5.488;2023-01-30T03:58:55;10.10;99.90
25440;DHT22;13365;52.208;5.488;2023-01-30T04:01:21;10.20;99.90
25440;DHT22;13365;52.208;5.488;2023-01-30T04:03:46;10.10;99.90
25440;DHT22;13365;52.208;5.488;2023-01-30T04:06:12;10.30;99.90
25440;DHT22;13365;52.208;5.488;2023-01-30T04:08:37;10.30;99.90
25440;DHT22;13365;52.208;5.488;2023-01-30T04:11:03;10.30;99.90
25440;DHT22;13365;52.208;5.488;2023-01-30T04:13:30;10.30;99.90
25440;DHT22;13365;52.208;5.488;2023-01-30T04:16:19;10.30;99.90
25440;DHT22;13365;52.208;5.488;2023-01-30T04:18:45;10.30;99.90
25440;DHT22;13365;52.208;5.488;2023-01-30T04:21:11;10.20;99.90
25440;DHT22;13365;52.208;5.488;2023-01-30T04:23:37;10.40;99.90
25440;DHT22;13365;52.208;5.488;2023-01-30T04:26:03;10.40;99.90
25440;DHT22;13365;52.208;5.488;2023-01-30T04:28:28;10.40;99.90
25440;DHT22;13365;52.208;5.488;2023-01-30T04:30:54;10.30;99.90
25440;DHT22;13365;52.208;5.488;2023-01-30T04:33:20;10.30;99.90
25440;DHT22;13365;52.208;5.488;2023-01-30T04:35:58;10.30;99.90
25440;DHT22;13365;52.208;5.488;2023-01-30T04:38:25;10.40;99.90
25440;DHT22;13365;52.208;5.488;2023-01-30T04:40:53;10.30;99.90
25440;DHT22;13365;52.208;5.488;2023-01-30T04:43:19;10.40;99.90
25440;DHT22;13365;52.208;5.488;2023-01-30T04:45:48;10.20;99.90
25440;DHT22;13365;52.208;5.488;2023-01-30T04:48:14;10.40;99.90
25440;DHT22;13365;52.208;5.488;2023-01-30T04:50:41;10.40;99.90
25440;DHT22;13365;52.208;5.488;2023-01-30T04:53:07;10.40;99.90
25440;DHT22;13365;52.208;5.488;2023-01-30T04:55:33;10.70;99.90
25440;DHT22;13365;52.208;5.488;2023-01-30T04:57:58;10.40;99.90
25440;DHT22;13365;52.208;5.488;2023-01-30T05:00:24;10.40;99.90
25440;DHT22;13365;52.208;5.488;2023-01-30T05:02:50;10.40;99.90
25440;DHT22;13365;52.208;5.488;2023-01-30T05:05:16;10.40;99.90
25440;DHT22;13365;52.208;5.488;2023-01-30T05:07:41;10.50;99.90
25440;DHT22;13365;52.208;5.488;2023-01-30T05:10:07;10.40;99.90
25440;DHT22;13365;52.208;5.488;2023-01-30T05:12:33;10.50;99.90
25440;DHT22;13365;52.208;5.488;2023-01-30T05:14:59;10.50;99.90
25440;DHT22;13365;52.208;5.488;2023-01-30T05:17:25;10.30;99.90
25440;DHT22;13365;52.208;5.488;2023-01-30T05:19:51;10.30;99.90
25440;DHT22;13365;52.208;5.488;2023-01-30T05:22:16;10.20;99.90
25440;DHT22;13365;52.208;5.488;2023-01-30T05:24:42;10.20;99.90
25440;DHT22;13365;52.208;5.488;2023-01-30T05:27:07;10.40;99.90
25440;DHT22;13365;52.208;5.488;2023-01-30T05:29:33;10.40;99.90
25440;DHT22;13365;52.208;5.488;2023-01-30T05:31:58;10.30;99.90
25440;DHT22;13365;52.208;5.488;2023-01-30T05:34:24;10.30;99.90
25440;DHT22;13365;52.208;5.488;2023-01-30T05:36:50;10.30;99.90
25440;DHT22;13365;52.208;5.488;2023-01-30T05:39:16;10.30;99.90
25440;DHT22;13365;52.208;5.488;2023-01-30T05:41:41;10.30;99.90
25440;DHT22;13365;52.208;5.488;2023-01-30T05:44:07;10.30;99.90
25440;DHT22;13365;52.208;5.488;2023-01-30T05:46:32;10.30;99.90
25440;DHT22;13365;52.208;5.488;2023-01-30T05:48:58;10.20;99.90
25440;DHT22;13365;52.208;5.488;2023-01-30T05:51:25;10.10;99.90
25440;DHT22;13365;52.208;5.488;2023-01-30T05:53:51;10.10;99.90
25440;DHT22;13365;52.208;5.488;2023-01-30T05:56:17;10.30;99.90
25440;DHT22;13365;52.208;5.488;2023-01-30T05:58:49;10.40;99.90
25440;DHT22;13365;52.208;5.488;2023-01-30T06:01:16;10.40;99.90
25440;DHT22;13365;52.208;5.488;2023-01-30T06:03:41;10.20;99.90
25440;DHT22;13365;52.208;5.488;2023-01-30T06:06:08;10.20;99.90
25440;DHT22;13365;52.208;5.488;2023-01-30T06:08:34;10.10;99.90
25440;DHT22;13365;52.208;5.488;2023-01-30T06:11:01;10.10;99.90
25440;DHT22;13365;52.208;5.488;2023-01-30T06:13:27;10.20;99.90
25440;DHT22;13365;52.208;5.488;2023-01-30T06:15:52;10.20;99.90
25440;DHT22;13365;52.208;5.488;2023-01-30T06:18:18;10.00;99.90
25440;DHT22;13365;52.208;5.488;2023-01-30T06:20:50;10.10;99.90
25440;DHT22;13365;52.208;5.488;2023-01-30T06:23:16;10.10;99.90
25440;DHT22;13365;52.208;5.488;2023-01-30T06:25:43;9.90;99.90
25440;DHT22;13365;52.208;5.488;2023-01-30T06:28:09;9.80;99.90
25440;DHT22;13365;52.208;5.488;2023-01-30T06:30:35;9.70;99.90
25440;DHT22;13365;52.208;5.488;2023-01-30T06:33:00;9.70;99.90
25440;DHT22;13365;52.208;5.488;2023-01-30T06:35:26;9.50;99.90
25440;DHT22;13365;52.208;5.488;2023-01-30T06:37:51;9.40;99.90
25440;DHT22;13365;52.208;5.488;2023-01-30T06:40:17;9.20;99.90
25440;DHT22;13365;52.208;5.488;2023-01-30T06:42:47;9.10;99.90
25440;DHT22;13365;52.208;5.488;2023-01-30T06:45:14;9.20;99.90
25440;DHT22;13365;52.208;5.488;2023-01-30T06:47:51;9.30;99.90
25440;DHT22;13365;52.208;5.488;2023-01-30T06:50:19;9.30;99.90
25440;DHT22;13365;52.208;5.488;2023-01-30T06:52:49;9.30;99.90
25440;DHT22;13365;52.208;5.488;2023-01-30T06:55:17;9.30;99.90
25440;DHT22;13365;52.208;5.488;2023-01-30T06:57:43;9.20;99.90
25440;DHT22;13365;52.208;5.488;2023-01-30T07:00:11;9.10;99.90
25440;DHT22;13365;52.208;5.488;2023-01-30T07:02:37;9.20;99.90
25440;DHT22;13365;52.208;5.488;2023-01-30T07:05:05;9.30;99.90
25440;DHT22;13365;52.208;5.488;2023-01-30T07:07:31;9.20;99.90
25440;DHT22;13365;52.208;5.488;2023-01-30T07:09:57;9.20;99.90
25440;DHT22;13365;52.208;5.488;2023-01-30T07:12:23;9.30;99.90
25440;DHT22;13365;52.208;5.488;2023-01-30T07:14:49;9.20;99.90
25440;DHT22;13365;52.208;5.488;2023-01-30T07:17:15;9.30;99.90
25440;DHT22;13365;52.208;5.488;2023-01-30T07:19:45;9.30;99.90
25440;DHT22;13365;52.208;5.488;2023-01-30T07:22:10;9.40;99.90
25440;DHT22;13365;52.208;5.488;2023-01-30T07:24:36;9.40;99.90
25440;DHT22;13365;52.208;5.488;2023-01-30T07:27:02;9.20;99.90
25440;DHT22;13365;52.208;5.488;2023-01-30T07:29:28;9.10;99.90
25440;DHT22;13365;52.208;5.488;2023-01-30T07:31:53;8.90;99.90
25440;DHT22;13365;52.208;5.488;2023-01-30T07:34:19;8.90;99.90
25440;DHT22;13365;52.208;5.488;2023-01-30T07:36:44;8.90;99.90
25440;DHT22;13365;52.208;5.488;2023-01-30T07:39:10;8.70;99.90
25440;DHT22;13365;52.208;5.488;2023-01-30T07:41:36;8.80;99.90
25440;DHT22;13365;52.208;5.488;2023-01-30T07:44:02;9.10;99.90
25440;DHT22;13365;52.208;5.488;2023-01-30T07:46:27;9.00;99.90
25440;DHT22;13365;52.208;5.488;2023-01-30T07:49:00;9.00;99.90
25440;DHT22;13365;52.208;5.488;2023-01-30T07:51:25;9.00;99.90
25440;DHT22;13365;52.208;5.488;2023-01-30T07:53:51;9.10;99.90
25440;DHT22;13365;52.208;5.488;2023-01-30T07:56:16;9.20;99.90
25440;DHT22;13365;52.208;5.488;2023-01-30T07:58:44;9.20;99.90
25440;DHT22;13365;52.208;5.488;2023-01-30T08:01:10;9.20;99.90
25440;DHT22;13365;52.208;5.488;2023-01-30T08:03:35;9.10;99.90
25440;DHT22;13365;52.208;5.488;2023-01-30T08:06:01;9.10;99.90
25440;DHT22;13365;52.208;5.488;2023-01-30T08:08:26;9.10;99.90
25440;DHT22;13365;52.208;5.488;2023-01-30T08:10:52;9.20;99.90
25440;DHT22;13365;52.208;5.488;2023-01-30T08:13:17;9.30;99.90
25440;DHT22;13365;52.208;5.488;2023-01-30T08:15:43;9.30;99.90
25440;DHT22;13365;52.208;5.488;2023-01-30T08:18:08;9.20;99.90
25440;DHT22;13365;52.208;5.488;2023-01-30T08:20:35;9.10;99.90
25440;DHT22;13365;52.208;5.488;2023-01-30T08:23:00;9.00;99.90
25440;DHT22;13365;52.208;5.488;2023-01-30T08:25:27;9.30;99.90
25440;DHT22;13365;52.208;5.488;2023-01-30T08:27:53;9.50;99.90
25440;DHT22;13365;52.208;5.488;2023-01-30T08:30:20;9.50;99.90
25440;DHT22;13365;52.208;5.488;2023-01-30T08:32:45;9.60;99.90
25440;DHT22;13365;52.208;5.488;2023-01-30T08:35:12;9.60;99.90
25440;DHT22;13365;52.208;5.488;2023-01-30T08:37:38;9.70;99.90
25440;DHT22;13365;52.208;5.488;2023-01-30T08:40:04;9.90;99.90
25440;DHT22;13365;52.208;5.488;2023-01-30T08:42:30;9.80;99.60
25440;DHT22;13365;52.208;5.488;2023-01-30T08:44:55;9.80;99.60
25440;DHT22;13365;52.208;5.488;2023-01-30T08:47:21;9.70;99.90
25440;DHT22;13365;52.208;5.488;2023-01-30T08:49:47;9.80;99.90
25440;DHT22;13365;52.208;5.488;2023-01-30T08:52:13;9.80;99.50
25440;DHT22;13365;52.208;5.488;2023-01-30T08:54:38;9.80;99.60
25440;DHT22;13365;52.208;5.488;2023-01-30T08:57:03;9.70;99.50
25440;DHT22;13365;52.208;5.488;2023-01-30T08:59:29;9.80;99.30
25440;DHT22;13365;52.208;5.488;2023-01-30T09:01:55;9.80;99.30
25440;DHT22;13365;52.208;5.488;2023-01-30T09:04:20;9.80;99.10
25440;DHT22;13365;52.208;5.488;2023-01-30T09:06:49;9.80;99.40
25440;DHT22;13365;52.208;5.488;2023-01-30T09:09:14;9.60;99.10
25440;DHT22;13365;52.208;5.488;2023-01-30T09:11:40;9.50;99.90
25440;DHT22;13365;52.208;5.488;2023-01-30T09:14:05;9.70;99.80
25440;DHT22;13365;52.208;5.488;2023-01-30T09:16:31;9.50;99.80
25440;DHT22;13365;52.208;5.488;2023-01-30T09:18:56;9.80;99.80
25440;DHT22;13365;52.208;5.488;2023-01-30T09:21:22;9.90;99.40
25440;DHT22;13365;52.208;5.488;2023-01-30T09:23:48;10.00;99.60
25440;DHT22;13365;52.208;5.488;2023-01-30T09:26:14;10.10;99.30
25440;DHT22;13365;52.208;5.488;2023-01-30T09:28:39;10.00;98.90
25440;DHT22;13365;52.208;5.488;2023-01-30T09:31:05;10.10;99.20
25440;DHT22;13365;52.208;5.488;2023-01-30T09:33:31;10.00;99.10
25440;DHT22;13365;52.208;5.488;2023-01-30T09:35:56;10.10;99.30
25440;DHT22;13365;52.208;5.488;2023-01-30T09:38:22;10.20;98.60
25440;DHT22;13365;52.208;5.488;2023-01-30T09:41:21;10.10;98.80
25440;DHT22;13365;52.208;5.488;2023-01-30T09:54:35;10.10;98.10
25440;DHT22;13365;52.208;5.488;2023-01-30T10:02:30;10.10;99.10
25440;DHT22;13365;52.208;5.488;2023-01-30T10:04:58;10.10;98.80
25440;DHT22;13365;52.208;5.488;2023-01-30T10:07:42;10.10;98.40
25440;DHT22;13365;52.208;5.488;2023-01-30T10:10:29;10.10;98.70
25440;DHT22;13365;52.208;5.488;2023-01-30T10:13:21;10.10;99.00
25440;DHT22;13365;52.208;5.488;2023-01-30T10:16:04;10.10;98.50
25440;DHT22;13365;52.208;5.488;2023-01-30T10:21:30;10.30;98.50
25440;DHT22;13365;52.208;5.488;2023-01-30T10:26:50;10.30;97.60
25440;DHT22;13365;52.208;5.488;2023-01-30T10:29:27;10.30;97.80
25440;DHT22;13365;52.208;5.488;2023-01-30T10:32:38;10.30;97.80
25440;DHT22;13365;52.208;5.488;2023-01-30T10:35:26;10.20;98.00
25440;DHT22;13365;52.208;5.488;2023-01-30T10:40:54;10.40;98.00
25440;DHT22;13365;52.208;5.488;2023-01-30T10:43:35;10.40;97.90
25440;DHT22;13365;52.208;5.488;2023-01-30T10:48:46;10.30;97.50
25440;DHT22;13365;52.208;5.488;2023-01-30T10:53:52;10.40;97.50
25440;DHT22;13365;52.208;5.488;2023-01-30T10:56:42;10.40;97.20
25440;DHT22;13365;52.208;5.488;2023-01-30T10:59:39;10.50;97.00
25440;DHT22;13365;52.208;5.488;2023-01-30T11:02:29;10.40;97.00
25440;DHT22;13365;52.208;5.488;2023-01-30T11:05:03;10.40;97.00
25440;DHT22;13365;52.208;5.488;2023-01-30T11:07:37;10.40;97.30
25440;DHT22;13365;52.208;5.488;2023-01-30T11:10:14;10.50;96.50
25440;DHT22;13365;52.208;5.488;2023-01-30T11:12:41;10.60;97.30
25440;DHT22;13365;52.208;5.488;2023-01-30T11:15:07;10.60;96.30
25440;DHT22;13365;52.208;5.488;2023-01-30T11:17:39;10.50;96.90
25440;DHT22;13365;52.208;5.488;2023-01-30T11:20:21;10.40;96.50
25440;DHT22;13365;52.208;5.488;2023-01-30T11:22:50;10.60;96.50
25440;DHT22;13365;52.208;5.488;2023-01-30T11:25:21;10.50;96.30
25440;DHT22;13365;52.208;5.488;2023-01-30T11:27:58;10.50;96.10
25440;DHT22;13365;52.208;5.488;2023-01-30T11:30:35;10.50;96.40
25440;DHT22;13365;52.208;5.488;2023-01-30T11:33:16;10.60;96.70
25440;DHT22;13365;52.208;5.488;2023-01-30T11:35:52;10.70;97.00
25440;DHT22;13365;52.208;5.488;2023-01-30T11:38:28;10.70;94.60
25440;DHT22;13365;52.208;5.488;2023-01-30T11:41:09;10.50;95.90
25440;DHT22;13365;52.208;5.488;2023-01-30T11:43:40;10.50;95.90
25440;DHT22;13365;52.208;5.488;2023-01-30T11:46:11;10.40;96.30
25440;DHT22;13365;52.208;5.488;2023-01-30T11:49:20;10.40;96.30
25440;DHT22;13365;52.208;5.488;2023-01-30T11:51:46;10.60;96.40
25440;DHT22;13365;52.208;5.488;2023-01-30T11:54:18;10.70;96.80
25440;DHT22;13365;52.208;5.488;2023-01-30T11:56:52;11.00;96.20
25440;DHT22;13365;52.208;5.488;2023-01-30T11:59:24;11.10;95.50
25440;DHT22;13365;52.208;5.488;2023-01-30T12:01:52;11.00;95.60
25440;DHT22;13365;52.208;5.488;2023-01-30T12:04:27;11.00;95.80
25440;DHT22;13365;52.208;5.488;2023-01-30T12:07:05;10.90;95.80
25440;DHT22;13365;52.208;5.488;2023-01-30T12:09:34;10.70;96.10
25440;DHT22;13365;52.208;5.488;2023-01-30T12:12:01;10.70;96.50
25440;DHT22;13365;52.208;5.488;2023-01-30T12:15:04;10.70;96.20
25440;DHT22;13365;52.208;5.488;2023-01-30T12:23:41;10.80;96.20
25440;DHT22;13365;52.208;5.488;2023-01-30T12:26:24;10.90;95.90
25440;DHT22;13365;52.208;5.488;2023-01-30T12:29:28;10.80;95.90
25440;DHT22;13365;52.208;5.488;2023-01-30T12:32:16;10.70;96.20
25440;DHT22;13365;52.208;5.488;2023-01-30T12:34:44;10.60;96.40
25440;DHT22;13365;52.208;5.488;2023-01-30T12:45:38;10.60;96.70
25440;DHT22;13365;52.208;5.488;2023-01-30T12:48:16;10.80;96.60
25440;DHT22;13365;52.208;5.488;2023-01-30T12:51:30;10.80;96.00
25440;DHT22;13365;52.208;5.488;2023-01-30T12:57:02;10.80;95.90
25440;DHT22;13365;52.208;5.488;2023-01-30T12:59:42;10.90;95.40
25440;DHT22;13365;52.208;5.488;2023-01-30T13:02:36;10.60;95.30
25440;DHT22;13365;52.208;5.488;2023-01-30T13:05:23;10.70;95.50
25440;DHT22;13365;52.208;5.488;2023-01-30T13:15:43;10.80;96.00
25440;DHT22;13365;52.208;5.488;2023-01-30T13:18:24;10.80;95.70
25440;DHT22;13365;52.208;5.488;2023-01-30T13:23:54;11.00;96.10
25440;DHT22;13365;52.208;5.488;2023-01-30T13:26:33;11.20;95.80
25440;DHT22;13365;52.208;5.488;2023-01-30T13:29:04;11.00;95.50
25440;DHT22;13365;52.208;5.488;2023-01-30T13:31:35;10.90;95.70
25440;DHT22;13365;52.208;5.488;2023-01-30T13:34:16;10.70;96.30
25440;DHT22;13365;52.208;5.488;2023-01-30T13:36:55;10.70;96.70
25440;DHT22;13365;52.208;5.488;2023-01-30T13:39:32;10.90;96.60
25440;DHT22;13365;52.208;5.488;2023-01-30T13:42:01;10.90;96.30
25440;DHT22;13365;52.208;5.488;2023-01-30T13:44:30;11.00;96.50
25440;DHT22;13365;52.208;5.488;2023-01-30T13:47:10;10.90;96.30
25440;DHT22;13365;52.208;5.488;2023-01-30T13:52:46;11.20;95.70
25440;DHT22;13365;52.208;5.488;2023-01-30T13:55:39;11.00;96.00
25440;DHT22;13365;52.208;5.488;2023-01-30T14:00:58;11.00;95.60
25440;DHT22;13365;52.208;5.488;2023-01-30T14:03:24;10.90;95.90
25440;DHT22;13365;52.208;5.488;2023-01-30T14:08:18;10.80;96.00
25440;DHT22;13365;52.208;5.488;2023-01-30T14:10:45;10.90;95.60
25440;DHT22;13365;52.208;5.488;2023-01-30T14:13:13;11.10;95.60
25440;DHT22;13365;52.208;5.488;2023-01-30T14:18:26;11.40;95.30
25440;DHT22;13365;52.208;5.488;2023-01-30T14:21:12;11.30;95.20
25440;DHT22;13365;52.208;5.488;2023-01-30T14:23:39;11.20;95.60
25440;DHT22;13365;52.208;5.488;2023-01-30T14:26:06;11.20;95.70
25440;DHT22;13365;52.208;5.488;2023-01-30T14:31:01;11.10;95.40
25440;DHT22;13365;52.208;5.488;2023-01-30T14:38:29;11.10;95.90
25440;DHT22;13365;52.208;5.488;2023-01-30T14:46:05;10.90;96.70
25440;DHT22;13365;52.208;5.488;2023-01-30T14:48:37;11.10;96.50
25440;DHT22;13365;52.208;5.488;2023-01-30T14:56:21;10.90;96.50
25440;DHT22;13365;52.208;5.488;2023-01-30T14:59:01;10.70;96.50
25440;DHT22;13365;52.208;5.488;2023-01-30T15:01:58;10.70;96.60
25440;DHT22;13365;52.208;5.488;2023-01-30T15:04:27;10.90;96.40
25440;DHT22;13365;52.208;5.488;2023-01-30T15:06:55;10.70;96.50
25440;DHT22;13365;52.208;5.488;2023-01-30T15:09:25;10.80;96.60
25440;DHT22;13365;52.208;5.488;2023-01-30T15:20:23;10.60;97.20
25440;DHT22;13365;52.208;5.488;2023-01-30T15:25:53;10.40;97.20
25440;DHT22;13365;52.208;5.488;2023-01-30T15:28:36;10.50;97.10
25440;DHT22;13365;52.208;5.488;2023-01-30T15:31:19;10.60;96.70
25440;DHT22;13365;52.208;5.488;2023-01-30T15:33:52;10.50;96.80
25440;DHT22;13365;52.208;5.488;2023-01-30T15:36:30;10.60;96.80
25440;DHT22;13365;52.208;5.488;2023-01-30T15:39:17;10.40;96.50
25440;DHT22;13365;52.208;5.488;2023-01-30T15:41:43;10.60;96.80
25440;DHT22;13365;52.208;5.488;2023-01-30T15:50:03;10.50;96.90
25440;DHT22;13365;52.208;5.488;2023-01-30T15:52:38;10.50;96.60
25440;DHT22;13365;52.208;5.488;2023-01-30T15:55:06;10.50;96.70
25440;DHT22;13365;52.208;5.488;2023-01-30T15:57:34;10.40;97.00
25440;DHT22;13365;52.208;5.488;2023-01-30T16:00:02;10.30;97.20
25440;DHT22;13365;52.208;5.488;2023-01-30T16:02:34;10.10;97.60
25440;DHT22;13365;52.208;5.488;2023-01-30T16:05:15;10.10;98.00
25440;DHT22;13365;52.208;5.488;2023-01-30T16:07:41;10.10;98.10
25440;DHT22;13365;52.208;5.488;2023-01-30T16:10:14;10.40;98.10
25440;DHT22;13365;52.208;5.488;2023-01-30T16:12:40;10.40;99.00
25440;DHT22;13365;52.208;5.488;2023-01-30T16:15:19;10.30;99.90
25440;DHT22;13365;52.208;5.488;2023-01-30T16:20:55;10.00;99.90
25440;DHT22;13365;52.208;5.488;2023-01-30T16:23:27;9.90;99.90
25440;DHT22;13365;52.208;5.488;2023-01-30T16:25:54;10.10;99.90
25440;DHT22;13365;52.208;5.488;2023-01-30T16:28:21;9.70;99.90
25440;DHT22;13365;52.208;5.488;2023-01-30T16:30:55;9.80;99.90
25440;DHT22;13365;52.208;5.488;2023-01-30T16:33:21;9.70;99.90
25440;DHT22;13365;52.208;5.488;2023-01-30T16:35:46;9.60;99.90
25440;DHT22;13365;52.208;5.488;2023-01-30T16:38:38;9.70;99.90
25440;DHT22;13365;52.208;5.488;2023-01-30T16:41:04;9.80;99.90
25440;DHT22;13365;52.208;5.488;2023-01-30T16:43:31;9.70;99.90
25440;DHT22;13365;52.208;5.488;2023-01-30T16:49:05;9.80;99.90
25440;DHT22;13365;52.208;5.488;2023-01-30T16:51:31;9.80;99.80
25440;DHT22;13365;52.208;5.488;2023-01-30T16:54:02;9.80;99.30
25440;DHT22;13365;52.208;5.488;2023-01-30T16:56:31;9.80;99.10
25440;DHT22;13365;52.208;5.488;2023-01-30T16:58:58;9.90;99.20
25440;DHT22;13365;52.208;5.488;2023-01-30T17:01:38;9.80;98.80
25440;DHT22;13365;52.208;5.488;2023-01-30T17:04:13;9.70;98.90
25440;DHT22;13365;52.208;5.488;2023-01-30T17:06:40;9.80;99.00
25440;DHT22;13365;52.208;5.488;2023-01-30T17:09:36;9.80;99.10
25440;DHT22;13365;52.208;5.488;2023-01-30T17:15:04;9.80;99.00
25440;DHT22;13365;52.208;5.488;2023-01-30T17:17:39;9.80;99.00
25440;DHT22;13365;52.208;5.488;2023-01-30T17:20:05;9.90;99.10
25440;DHT22;13365;52.208;5.488;2023-01-30T17:22:31;9.80;98.90
25440;DHT22;13365;52.208;5.488;2023-01-30T17:25:06;9.50;99.30
25440;DHT22;13365;52.208;5.488;2023-01-30T17:27:33;9.40;99.70
25440;DHT22;13365;52.208;5.488;2023-01-30T17:29:58;9.50;99.50
25440;DHT22;13365;52.208;5.488;2023-01-30T17:32:24;9.80;99.50
25440;DHT22;13365;52.208;5.488;2023-01-30T17:34:49;9.80;98.90
25440;DHT22;13365;52.208;5.488;2023-01-30T17:37:17;9.70;99.20
25440;DHT22;13365;52.208;5.488;2023-01-30T17:39:44;9.50;99.40
25440;DHT22;13365;52.208;5.488;2023-01-30T17:42:14;9.40;99.60
25440;DHT22;13365;52.208;5.488;2023-01-30T17:44:42;9.40;99.90
25440;DHT22;13365;52.208;5.488;2023-01-30T17:47:10;9.50;99.60
25440;DHT22;13365;52.208;5.488;2023-01-30T17:49:36;9.70;99.30
25440;DHT22;13365;52.208;5.488;2023-01-30T17:52:01;9.70;99.20
25440;DHT22;13365;52.208;5.488;2023-01-30T17:54:27;9.80;99.00
25440;DHT22;13365;52.208;5.488;2023-01-30T17:56:58;10.10;98.30
25440;DHT22;13365;52.208;5.488;2023-01-30T17:59:24;10.00;98.00
25440;DHT22;13365;52.208;5.488;2023-01-30T18:01:51;10.10;97.90
25440;DHT22;13365;52.208;5.488;2023-01-30T18:04:17;9.90;98.10
25440;DHT22;13365;52.208;5.488;2023-01-30T18:06:46;10.00;97.80
25440;DHT22;13365;52.208;5.488;2023-01-30T18:09:17;9.70;98.20
25440;DHT22;13365;52.208;5.488;2023-01-30T18:11:43;9.40;98.80
25440;DHT22;13365;52.208;5.488;2023-01-30T18:14:09;9.30;99.40